This is the latest recevied weather packets stored in our database for station/object SM4JDW-10. If no packets are shown the sender has not sent any weather packets the latest 1 day(s).
| Time | Temp. | Humidity | Pressure | Rain* | Wind** | Luminosity | Snow |
|---|---|---|---|---|---|---|---|
| 1778071581 | 12.22° C | 31% | 1009 hPa | - | - | - | - |
| 1778069781 | 12.22° C | 31% | 1009.2 hPa | - | - | - | - |
| 1778067983 | 11.67° C | 34% | 1009.2 hPa | - | - | - | - |
| 1778066183 | 11.11° C | 34% | 1009.4 hPa | - | - | - | - |
| 1778064383 | 10° C | 37% | 1009.6 hPa | - | - | - | - |
| 1778062583 | 10° C | 37% | 1009.9 hPa | - | - | - | - |
| 1778060783 | 8.89° C | 42% | 1009.9 hPa | - | - | - | - |
| 1778058983 | 7.22° C | 45% | 1010.1 hPa | - | - | - | - |
| 1778057183 | 5° C | 45% | 1010.4 hPa | - | - | - | - |
| 1778049982 | 0.56° C | 58% | 1010.4 hPa | - | - | - | - |
| 1778048182 | -0.56° C | 61% | 1010.4 hPa | - | - | - | - |
| 1778046382 | -1.11° C | 59% | 1010.4 hPa | - | - | - | - |
| 1778044582 | -1.67° C | 56% | 1010.4 hPa | - | - | - | - |
| 1778042782 | -1.67° C | 57% | 1010.4 hPa | - | - | - | - |
| 1778040982 | -1.67° C | 55% | 1010.2 hPa | - | - | - | - |
| 1778039182 | -1.67° C | 59% | 1010 hPa | - | - | - | - |
| 1778037382 | -1.67° C | 58% | 1009.7 hPa | - | - | - | - |
| 1778035582 | -1.11° C | 58% | 1009.4 hPa | - | - | - | - |
| 1778033782 | -1.11° C | 58% | 1009.4 hPa | - | - | - | - |
| 1778028382 | 0° C | 55% | 1008.9 hPa | - | - | - | - |
| 1778013981 | 3.89° C | 47% | 1007.6 hPa | - | - | - | - |
| 1778012181 | 4.44° C | 46% | 1007.3 hPa | - | - | - | - |
| 1778008581 | 6.11° C | 42% | 1006.7 hPa | - | - | - | - |
| 1778001381 | 9.44° C | 35% | 1005.9 hPa | - | - | - | - |
* Rain since midnight (hover to see other rain measurements)
** Current wind speed in m/s (hover to see current wind gust speed)